createdAt,value
2023-01-17T00:02:25.745Z,1.50
2023-01-17T00:05:13.561Z,1.50
2023-01-17T00:08:00.353Z,1.50
2023-01-17T00:10:28.714Z,1.40
2023-01-17T00:13:01.236Z,1.40
2023-01-17T00:15:31.353Z,1.40
2023-01-17T00:17:59.931Z,1.40
2023-01-17T00:20:48.872Z,1.40
2023-01-17T00:23:41.081Z,1.30
2023-01-17T00:26:19.514Z,1.30
2023-01-17T00:28:49.462Z,1.30
2023-01-17T00:31:17.834Z,1.30
2023-01-17T00:33:45.615Z,1.30
2023-01-17T00:36:13.660Z,1.30
2023-01-17T00:38:41.803Z,1.30
2023-01-17T00:41:12.460Z,1.30
2023-01-17T00:43:59.799Z,1.30
2023-01-17T00:46:46.540Z,1.30
2023-01-17T00:49:32.889Z,1.30
2023-01-17T00:52:19.985Z,1.30
2023-01-17T00:55:06.007Z,1.30
2023-01-17T00:57:52.125Z,1.30
2023-01-17T01:00:38.698Z,1.20
2023-01-17T01:03:32.490Z,1.20
2023-01-17T01:06:22.616Z,1.20
2023-01-17T01:09:08.787Z,1.10
2023-01-17T01:11:55.616Z,1.10
2023-01-17T01:14:41.894Z,1.10
2023-01-17T01:17:28.290Z,0.90
2023-01-17T01:20:14.616Z,1.10
2023-01-17T01:23:00.902Z,1.10
2023-01-17T01:25:47.397Z,1.00
2023-01-17T01:28:35.039Z,1.00
2023-01-17T01:31:22.221Z,1.00
2023-01-17T01:33:53.887Z,1.00
2023-01-17T01:36:22.241Z,0.90
2023-01-17T01:38:50.571Z,1.00
2023-01-17T01:41:18.608Z,1.00
2023-01-17T01:43:49.440Z,0.90
2023-01-17T01:46:20.473Z,1.00
2023-01-17T01:48:54.199Z,0.90
2023-01-17T01:51:40.565Z,0.90
2023-01-17T01:54:14.300Z,0.90
2023-01-17T01:56:43.551Z,0.90
2023-01-17T01:59:16.075Z,0.90
2023-01-17T02:01:43.895Z,0.90
2023-01-17T02:04:15.323Z,0.90
2023-01-17T02:06:48.203Z,0.90
2023-01-17T02:09:17.972Z,0.90
2023-01-17T02:11:48.895Z,0.90
2023-01-17T02:14:18.751Z,0.90
2023-01-17T02:17:04.221Z,0.80
2023-01-17T02:19:59.987Z,0.90
2023-01-17T02:22:54.692Z,0.80
2023-01-17T02:25:28.689Z,0.80
2023-01-17T02:28:15.881Z,0.80
2023-01-17T02:30:48.502Z,0.70
2023-01-17T02:33:42.619Z,0.70
2023-01-17T02:36:26.257Z,0.70
2023-01-17T02:39:03.376Z,0.70
2023-01-17T02:41:44.416Z,0.70
2023-01-17T02:44:16.855Z,0.70
2023-01-17T02:46:55.225Z,0.60
2023-01-17T02:49:28.098Z,0.70
2023-01-17T02:52:42.333Z,0.70
2023-01-17T02:55:42.290Z,0.60
2023-01-17T02:58:31.048Z,0.60
2023-01-17T03:01:25.318Z,0.60
2023-01-17T03:04:02.597Z,0.60
2023-01-17T03:06:40.688Z,0.50
2023-01-17T03:09:09.932Z,0.50
2023-01-17T03:11:37.461Z,0.50
2023-01-17T03:14:05.058Z,0.50
2023-01-17T03:16:33.897Z,0.50
2023-01-17T03:19:01.727Z,0.40
2023-01-17T03:21:29.521Z,0.40
2023-01-17T03:23:57.222Z,0.50
2023-01-17T03:26:25.919Z,0.40
2023-01-17T03:28:53.824Z,0.40
2023-01-17T03:31:21.596Z,0.40
2023-01-17T03:33:49.718Z,0.30
2023-01-17T03:36:18.582Z,0.30
2023-01-17T03:38:46.534Z,0.40
2023-01-17T03:41:14.106Z,0.30
2023-01-17T03:43:42.221Z,0.30
2023-01-17T03:46:28.961Z,0.30
2023-01-17T03:48:57.950Z,0.30
2023-01-17T03:51:25.765Z,0.30
2023-01-17T03:53:53.259Z,0.30
2023-01-17T03:56:23.702Z,0.20
2023-01-17T03:58:52.039Z,0.30
2023-01-17T04:01:20.003Z,0.20
2023-01-17T04:03:48.009Z,0.20
2023-01-17T04:06:17.014Z,0.20
2023-01-17T04:08:45.039Z,0.20
2023-01-17T04:11:12.834Z,0.20
2023-01-17T04:13:40.414Z,0.20
2023-01-17T04:16:13.542Z,0.20
2023-01-17T04:18:41.323Z,0.20
2023-01-17T04:21:09.061Z,0.20
2023-01-17T04:23:36.753Z,0.20
2023-01-17T04:26:04.582Z,0.20
2023-01-17T04:28:33.092Z,0.10
2023-01-17T04:31:00.917Z,0.10
2023-01-17T04:33:28.993Z,0.00
2023-01-17T04:35:57.528Z,0.10
2023-01-17T04:38:25.500Z,0.10
2023-01-17T04:40:54.224Z,0.00
2023-01-17T04:43:22.486Z,0.00
2023-01-17T04:45:58.520Z,0.00
2023-01-17T04:48:27.317Z,0.00
2023-01-17T04:51:02.570Z,0.00
2023-01-17T04:53:30.236Z,0.00
2023-01-17T04:55:58.463Z,-0.10
2023-01-17T04:58:26.513Z,-0.10
2023-01-17T05:00:54.964Z,-0.10
2023-01-17T05:03:23.662Z,-0.10
2023-01-17T05:05:54.230Z,-0.10
2023-01-17T05:08:22.305Z,-0.20
2023-01-17T05:10:50.289Z,-0.20
2023-01-17T05:13:18.642Z,-0.10
2023-01-17T05:15:47.337Z,-0.20
2023-01-17T05:18:17.629Z,-0.20
2023-01-17T05:20:45.749Z,-0.20
2023-01-17T05:23:13.488Z,-0.20
2023-01-17T05:25:45.002Z,-0.30
2023-01-17T05:28:13.119Z,-0.30
2023-01-17T05:30:41.130Z,-0.30
2023-01-17T05:33:10.224Z,-0.40
2023-01-17T05:35:38.609Z,-0.40
2023-01-17T05:38:06.217Z,-0.40
2023-01-17T05:40:34.722Z,-0.40
2023-01-17T05:43:05.499Z,-0.40
2023-01-17T05:45:33.785Z,-0.40
2023-01-17T05:48:01.692Z,-0.40
2023-01-17T05:50:32.953Z,-0.50
2023-01-17T05:53:06.804Z,-0.50
2023-01-17T05:55:35.162Z,-0.50
2023-01-17T05:58:03.789Z,-0.50
2023-01-17T06:00:32.133Z,-0.60
2023-01-17T06:03:01.403Z,-0.60
2023-01-17T06:05:31.907Z,-0.60
2023-01-17T06:07:59.815Z,-0.60
2023-01-17T06:10:29.046Z,-0.60
2023-01-17T06:13:12.845Z,-0.60
2023-01-17T06:15:41.326Z,-0.60
2023-01-17T06:18:11.454Z,-0.60
2023-01-17T06:20:40.736Z,-0.60
2023-01-17T06:23:13.853Z,-0.60
2023-01-17T06:25:44.859Z,-0.70
2023-01-17T06:28:13.723Z,-0.70
2023-01-17T06:30:42.575Z,-0.70
2023-01-17T06:33:10.882Z,-0.80
2023-01-17T06:35:40.894Z,-0.80
2023-01-17T06:38:10.139Z,-0.80
2023-01-17T06:40:37.915Z,-0.80
2023-01-17T06:43:06.519Z,-0.80
2023-01-17T06:45:35.770Z,-0.90
2023-01-17T06:48:05.477Z,-0.80
2023-01-17T06:50:34.408Z,-0.90
2023-01-17T06:53:04.905Z,-0.90
2023-01-17T06:55:33.925Z,-0.90
2023-01-17T06:58:03.072Z,-0.90
2023-01-17T07:00:35.384Z,-0.90
2023-01-17T07:03:03.827Z,-0.90
2023-01-17T07:05:31.631Z,-0.90
2023-01-17T07:07:59.445Z,-0.90
2023-01-17T07:10:27.046Z,-0.90
2023-01-17T07:12:59.675Z,-1.00
2023-01-17T07:15:27.466Z,-0.90
2023-01-17T07:17:55.337Z,-1.00
2023-01-17T07:20:23.304Z,-1.00
2023-01-17T07:22:51.257Z,-1.00
2023-01-17T07:25:20.196Z,-1.00
2023-01-17T07:27:47.859Z,-1.00
2023-01-17T07:30:15.811Z,-1.00
2023-01-17T07:32:44.040Z,-1.00
2023-01-17T07:35:11.572Z,-1.00
2023-01-17T07:37:39.373Z,-1.00
2023-01-17T07:40:07.460Z,-1.00
2023-01-17T07:42:35.056Z,-1.10
2023-01-17T07:45:02.888Z,-1.10
2023-01-17T07:47:30.622Z,-1.10
2023-01-17T07:49:58.129Z,-1.10
2023-01-17T07:52:25.912Z,-1.10
2023-01-17T07:54:53.626Z,-1.10
2023-01-17T07:57:21.343Z,-1.10
2023-01-17T07:59:50.998Z,-1.10
2023-01-17T08:02:24.761Z,-1.20
2023-01-17T08:04:52.460Z,-1.10
2023-01-17T08:07:20.159Z,-1.10
2023-01-17T08:09:49.876Z,-1.20
2023-01-17T08:12:17.637Z,-1.10
2023-01-17T08:14:45.180Z,-1.10
2023-01-17T08:17:16.003Z,-0.60
2023-01-17T08:19:44.758Z,-1.10
2023-01-17T08:22:16.347Z,-1.20
2023-01-17T08:24:44.675Z,-1.20
2023-01-17T08:27:12.291Z,-1.20
2023-01-17T08:29:42.848Z,-1.20
2023-01-17T08:32:11.634Z,-1.20
2023-01-17T08:34:39.128Z,-1.20
2023-01-17T08:37:07.186Z,-1.10
2023-01-17T08:39:35.260Z,-1.20
2023-01-17T08:42:02.974Z,-1.10
2023-01-17T08:44:30.959Z,-1.10
2023-01-17T08:46:59.085Z,-1.10
2023-01-17T08:49:30.029Z,-1.10
2023-01-17T08:51:57.785Z,-1.00
2023-01-17T08:54:25.339Z,-1.10
2023-01-17T08:56:53.011Z,-1.00
2023-01-17T08:59:20.777Z,-1.00
2023-01-17T09:01:48.780Z,-1.00
2023-01-17T09:04:16.725Z,-0.90
2023-01-17T09:06:47.684Z,-0.90
2023-01-17T09:09:19.058Z,-0.90
2023-01-17T09:11:46.857Z,-0.90
2023-01-17T09:14:14.523Z,-0.80
2023-01-17T09:16:42.066Z,-0.80
2023-01-17T09:19:10.285Z,-0.70
2023-01-17T09:21:37.768Z,-0.60
2023-01-17T09:24:05.898Z,-0.60
2023-01-17T09:26:33.762Z,-0.60
2023-01-17T09:29:01.246Z,-0.50
2023-01-17T09:31:28.947Z,-0.50
2023-01-17T09:33:58.157Z,-0.40
2023-01-17T09:36:31.893Z,-0.40
2023-01-17T09:39:00.766Z,-0.40
2023-01-17T09:41:34.939Z,-0.30
2023-01-17T09:44:17.963Z,-0.20
2023-01-17T09:46:49.408Z,-0.20
2023-01-17T09:49:34.600Z,-0.10
2023-01-17T09:52:03.387Z,-0.10
2023-01-17T09:54:42.762Z,0.20
2023-01-17T09:57:38.270Z,0.50
2023-01-17T10:00:13.080Z,0.70
2023-01-17T10:03:21.906Z,0.80
2023-01-17T10:06:16.423Z,1.10
2023-01-17T10:09:08.986Z,1.20
2023-01-17T10:11:43.148Z,1.30
2023-01-17T10:14:22.543Z,1.30
2023-01-17T10:17:08.557Z,1.40
2023-01-17T10:20:10.828Z,1.40
2023-01-17T10:23:18.033Z,1.40
2023-01-17T10:25:50.307Z,1.40
2023-01-17T10:28:26.108Z,1.40
2023-01-17T10:31:13.730Z,1.50
2023-01-17T10:33:50.362Z,1.60
2023-01-17T10:36:30.910Z,1.60
2023-01-17T10:39:12.789Z,1.70
2023-01-17T10:41:43.778Z,1.70
2023-01-17T10:44:27.669Z,1.70
2023-01-17T10:47:06.844Z,1.80
2023-01-17T10:49:38.875Z,1.90
2023-01-17T10:52:33.826Z,1.90
2023-01-17T10:55:11.637Z,2.00
2023-01-17T10:57:48.395Z,2.00
2023-01-17T11:00:44.326Z,2.10
2023-01-17T11:03:13.904Z,2.20
2023-01-17T11:05:42.896Z,2.20
2023-01-17T11:08:16.030Z,2.20
2023-01-17T11:10:47.238Z,2.30
2023-01-17T11:13:30.486Z,2.40
2023-01-17T11:16:09.130Z,2.50
2023-01-17T11:18:39.180Z,2.60
2023-01-17T11:21:14.345Z,2.70
2023-01-17T11:23:44.852Z,2.70
2023-01-17T11:26:23.990Z,2.80
2023-01-17T11:28:54.886Z,2.80
2023-01-17T11:31:27.250Z,2.80
2023-01-17T11:34:24.833Z,3.00
2023-01-17T11:37:14.280Z,3.00
2023-01-17T11:39:43.636Z,3.10
2023-01-17T11:42:32.145Z,3.20
2023-01-17T11:45:25.194Z,3.30
2023-01-17T11:48:14.188Z,3.40
2023-01-17T11:50:54.249Z,3.60
2023-01-17T11:53:38.371Z,3.60
2023-01-17T11:56:17.921Z,3.80
2023-01-17T11:58:47.250Z,3.80
2023-01-17T12:01:36.293Z,4.00
2023-01-17T12:04:03.810Z,4.10
2023-01-17T12:06:56.535Z,4.20
2023-01-17T12:10:03.119Z,4.30
2023-01-17T12:13:12.588Z,4.50
2023-01-17T12:16:00.127Z,4.60
2023-01-17T12:18:33.533Z,4.70
2023-01-17T12:21:21.655Z,4.80
2023-01-17T12:23:55.800Z,4.90
2023-01-17T12:27:01.698Z,4.90
2023-01-17T12:29:45.484Z,5.00
2023-01-17T12:32:25.576Z,5.00
2023-01-17T12:35:26.977Z,5.10
2023-01-17T12:38:05.922Z,5.10
2023-01-17T12:40:39.636Z,5.20
2023-01-17T12:43:16.421Z,5.20
2023-01-17T12:45:47.015Z,5.30
2023-01-17T12:48:20.017Z,5.40
2023-01-17T12:51:14.605Z,5.40
2023-01-17T12:54:42.731Z,5.50
2023-01-17T12:57:22.457Z,5.50
2023-01-17T13:00:10.400Z,5.50
2023-01-17T13:02:39.874Z,5.50
2023-01-17T13:05:10.829Z,5.50
2023-01-17T13:07:47.498Z,5.50
2023-01-17T13:10:24.299Z,5.50
2023-01-17T13:12:54.004Z,5.50
2023-01-17T13:15:26.273Z,5.60
2023-01-17T13:18:15.677Z,5.60
2023-01-17T13:20:58.212Z,5.70
2023-01-17T13:23:33.255Z,5.70
2023-01-17T13:26:03.301Z,5.80
2023-01-17T13:28:54.905Z,5.90
2023-01-17T13:32:02.876Z,5.90
2023-01-17T13:34:43.751Z,6.00
2023-01-17T13:37:36.427Z,6.10
2023-01-17T13:40:35.035Z,6.20
2023-01-17T13:43:25.777Z,6.30
2023-01-17T13:45:56.727Z,6.40
2023-01-17T13:48:37.753Z,6.50
2023-01-17T13:51:10.198Z,6.50
2023-01-17T13:53:40.766Z,6.60
2023-01-17T13:56:19.360Z,6.60
2023-01-17T13:58:48.881Z,6.60
2023-01-17T14:01:45.827Z,6.70
2023-01-17T14:04:13.523Z,6.70
2023-01-17T14:06:46.744Z,6.80
2023-01-17T14:09:23.807Z,6.80
2023-01-17T14:11:55.773Z,6.80
2023-01-17T14:14:45.569Z,6.80
2023-01-17T14:17:16.256Z,6.90
2023-01-17T14:19:52.720Z,6.90
2023-01-17T14:22:20.312Z,6.90
2023-01-17T14:25:14.906Z,6.80
2023-01-17T14:27:42.424Z,6.90
2023-01-17T14:30:25.051Z,6.90
2023-01-17T14:33:01.856Z,6.90
2023-01-17T14:35:32.592Z,7.00
2023-01-17T14:38:05.637Z,7.00
2023-01-17T14:40:37.578Z,7.00
2023-01-17T14:43:12.533Z,7.00
2023-01-17T14:45:41.208Z,7.00
2023-01-17T14:48:23.391Z,6.90
2023-01-17T14:50:54.206Z,6.90
2023-01-17T14:53:28.436Z,6.80
2023-01-17T14:56:23.185Z,6.80
2023-01-17T14:59:22.858Z,6.70
2023-01-17T15:02:06.819Z,6.70
2023-01-17T15:04:39.324Z,6.60
2023-01-17T15:07:13.023Z,6.60
2023-01-17T15:09:45.060Z,6.50
2023-01-17T15:12:16.510Z,6.40
2023-01-17T15:14:46.566Z,6.40
2023-01-17T15:17:24.499Z,6.40
2023-01-17T15:20:03.333Z,6.30
2023-01-17T15:22:31.350Z,6.20
2023-01-17T15:24:59.789Z,6.20
2023-01-17T15:27:28.009Z,6.10
2023-01-17T15:30:01.461Z,6.10
2023-01-17T15:32:31.736Z,6.00
2023-01-17T15:35:02.930Z,6.00
2023-01-17T15:37:35.010Z,5.90
2023-01-17T15:40:25.185Z,5.80
2023-01-17T15:43:01.028Z,5.80
2023-01-17T15:45:33.326Z,5.70
2023-01-17T15:48:39.375Z,5.60
2023-01-17T15:51:09.174Z,5.60
2023-01-17T15:53:39.227Z,5.50
2023-01-17T15:56:22.725Z,5.40
2023-01-17T15:58:50.979Z,5.40
2023-01-17T16:01:25.738Z,5.30
2023-01-17T16:03:54.907Z,5.20
2023-01-17T16:06:35.828Z,5.10
2023-01-17T16:09:18.792Z,5.00
2023-01-17T16:11:46.543Z,5.00
2023-01-17T16:14:14.568Z,4.90
2023-01-17T16:16:53.371Z,4.80
2023-01-17T16:19:21.554Z,4.70
2023-01-17T16:21:50.429Z,4.70
2023-01-17T16:24:18.872Z,4.50
2023-01-17T16:26:47.194Z,4.60
2023-01-17T16:29:15.082Z,4.60
2023-01-17T16:31:43.064Z,4.60
2023-01-17T16:34:14.546Z,4.40
2023-01-17T16:36:42.226Z,4.40
2023-01-17T16:39:14.795Z,4.30
2023-01-17T16:41:42.607Z,4.30
2023-01-17T16:44:10.370Z,4.20
2023-01-17T16:46:38.714Z,4.10
2023-01-17T16:49:06.501Z,4.10
2023-01-17T16:51:34.525Z,4.00
2023-01-17T16:54:03.195Z,4.00
2023-01-17T16:56:30.869Z,3.90
2023-01-17T16:58:58.765Z,3.90
2023-01-17T17:01:26.477Z,3.80
2023-01-17T17:03:54.207Z,3.70
2023-01-17T17:06:21.739Z,3.70
2023-01-17T17:08:49.467Z,3.60
2023-01-17T17:11:20.023Z,3.50
2023-01-17T17:13:49.677Z,3.50
2023-01-17T17:16:23.835Z,3.40
2023-01-17T17:18:58.208Z,3.40
2023-01-17T17:21:27.618Z,3.30
2023-01-17T17:23:58.145Z,3.20
2023-01-17T17:26:28.969Z,3.20
2023-01-17T17:28:57.238Z,3.10
2023-01-17T17:31:25.413Z,3.10
2023-01-17T17:33:57.048Z,3.00
2023-01-17T17:36:24.568Z,3.00
2023-01-17T17:38:55.292Z,2.90
2023-01-17T17:41:26.019Z,2.90
2023-01-17T17:43:55.349Z,2.80
2023-01-17T17:46:26.150Z,2.80
2023-01-17T17:48:53.922Z,2.80
2023-01-17T17:51:33.346Z,2.80
2023-01-17T17:54:03.899Z,2.70
2023-01-17T17:56:33.040Z,2.70
2023-01-17T17:59:02.007Z,2.70
2023-01-17T18:01:30.680Z,2.70
2023-01-17T18:04:03.229Z,2.70
2023-01-17T18:06:30.885Z,2.60
2023-01-17T18:08:58.303Z,2.60
2023-01-17T18:11:27.065Z,2.60
2023-01-17T18:13:56.092Z,2.50
2023-01-17T18:16:43.774Z,2.50
2023-01-17T18:19:17.695Z,2.50
2023-01-17T18:21:45.959Z,2.50
2023-01-17T18:24:15.329Z,2.40
2023-01-17T18:26:50.118Z,2.40
2023-01-17T18:29:19.585Z,2.40
2023-01-17T18:31:50.113Z,2.40
2023-01-17T18:34:24.215Z,2.30
2023-01-17T18:36:52.122Z,2.30
2023-01-17T18:39:22.148Z,2.30
2023-01-17T18:41:49.992Z,2.30
2023-01-17T18:44:21.733Z,2.30
2023-01-17T18:46:54.331Z,2.30
2023-01-17T18:49:21.881Z,2.30
2023-01-17T18:51:51.282Z,2.20
2023-01-17T18:54:20.021Z,2.20
2023-01-17T18:56:48.306Z,2.20
2023-01-17T18:59:18.420Z,2.20
2023-01-17T19:01:46.747Z,2.20
2023-01-17T19:04:15.939Z,2.20
2023-01-17T19:06:46.253Z,2.20
2023-01-17T19:09:15.681Z,2.10
2023-01-17T19:11:47.542Z,2.10
2023-01-17T19:14:15.992Z,2.10
2023-01-17T19:16:44.426Z,2.10
2023-01-17T19:19:15.262Z,2.10
2023-01-17T19:21:43.736Z,2.10
2023-01-17T19:24:13.082Z,2.10
2023-01-17T19:26:42.134Z,2.10
2023-01-17T19:29:10.172Z,2.00
2023-01-17T19:31:42.564Z,2.00
2023-01-17T19:34:13.792Z,2.00
2023-01-17T19:36:41.773Z,2.00
2023-01-17T19:39:10.091Z,2.00
2023-01-17T19:41:44.833Z,2.00
2023-01-17T19:44:15.159Z,2.00
2023-01-17T19:46:44.157Z,2.00
2023-01-17T19:49:12.188Z,1.90
2023-01-17T19:51:40.319Z,1.90
2023-01-17T19:54:08.484Z,1.90
2023-01-17T19:56:36.703Z,1.90
2023-01-17T19:59:04.561Z,1.90
2023-01-17T20:01:33.995Z,1.90
2023-01-17T20:04:03.319Z,1.90
2023-01-17T20:06:35.943Z,1.80
2023-01-17T20:09:05.194Z,1.90
2023-01-17T20:11:33.159Z,1.80
2023-01-17T20:14:01.250Z,1.80
2023-01-17T20:16:31.076Z,1.80
2023-01-17T20:19:00.293Z,1.80
2023-01-17T20:21:30.004Z,1.80
2023-01-17T20:23:59.603Z,1.70
2023-01-17T20:26:34.687Z,1.80
2023-01-17T20:29:10.384Z,1.80
2023-01-17T20:31:39.931Z,1.80
2023-01-17T20:34:10.670Z,1.70
2023-01-17T20:36:39.587Z,1.70
2023-01-17T20:39:08.544Z,1.70
2023-01-17T20:41:38.220Z,1.70
2023-01-17T20:44:07.943Z,1.70
2023-01-17T20:46:40.981Z,1.70
2023-01-17T20:49:15.194Z,1.70
2023-01-17T20:51:44.547Z,1.70
2023-01-17T20:54:15.202Z,1.60
2023-01-17T20:56:43.403Z,1.60
2023-01-17T20:59:16.456Z,1.60
2023-01-17T21:01:44.973Z,1.60
2023-01-17T21:04:13.040Z,1.60
2023-01-17T21:06:42.494Z,1.60
2023-01-17T21:09:15.139Z,1.60
2023-01-17T21:11:42.815Z,1.60
2023-01-17T21:14:10.377Z,1.60
2023-01-17T21:16:37.892Z,1.60
2023-01-17T21:19:06.184Z,1.50
2023-01-17T21:21:33.997Z,1.50
2023-01-17T21:24:01.479Z,1.50
2023-01-17T21:26:29.294Z,1.50
2023-01-17T21:28:58.397Z,1.50
2023-01-17T21:31:31.135Z,1.50
2023-01-17T21:34:01.588Z,1.40
2023-01-17T21:36:32.768Z,1.40
2023-01-17T21:39:04.807Z,1.40
2023-01-17T21:41:37.783Z,1.40
2023-01-17T21:44:13.187Z,1.30
2023-01-17T21:46:41.116Z,1.30
2023-01-17T21:49:11.870Z,1.30
2023-01-17T21:51:53.137Z,1.30
2023-01-17T21:54:41.981Z,1.30
2023-01-17T21:57:29.311Z,1.30
2023-01-17T21:59:56.830Z,1.30
2023-01-17T22:02:24.409Z,1.30
2023-01-17T22:04:54.393Z,1.30
2023-01-17T22:07:22.317Z,1.30
2023-01-17T22:09:50.383Z,1.30
2023-01-17T22:12:17.904Z,1.30
2023-01-17T22:14:45.492Z,1.30
2023-01-17T22:17:13.021Z,1.30
2023-01-17T22:19:40.496Z,1.30
2023-01-17T22:22:07.974Z,1.30
2023-01-17T22:24:35.540Z,1.30
2023-01-17T22:27:03.390Z,1.30
2023-01-17T22:29:32.445Z,1.30
2023-01-17T22:31:59.923Z,1.20
2023-01-17T22:34:27.710Z,1.20
2023-01-17T22:36:55.572Z,1.20
2023-01-17T22:39:23.115Z,1.20
2023-01-17T22:41:50.520Z,1.20
2023-01-17T22:44:18.029Z,1.20
2023-01-17T22:46:45.542Z,1.20
2023-01-17T22:49:15.760Z,1.20
2023-01-17T22:51:43.293Z,1.20
2023-01-17T22:54:11.607Z,1.20
2023-01-17T22:56:39.205Z,1.10
2023-01-17T22:59:11.495Z,1.20
2023-01-17T23:01:42.689Z,1.20
2023-01-17T23:04:13.631Z,1.20
2023-01-17T23:06:41.663Z,1.20
2023-01-17T23:09:14.393Z,1.20
2023-01-17T23:11:49.826Z,1.20
2023-01-17T23:14:25.335Z,1.20
2023-01-17T23:17:16.020Z,1.20
2023-01-17T23:19:54.394Z,1.20
2023-01-17T23:22:26.702Z,1.20
2023-01-17T23:25:01.429Z,1.20
2023-01-17T23:27:51.580Z,1.20
2023-01-17T23:30:25.079Z,1.10
2023-01-17T23:32:54.808Z,1.10
2023-01-17T23:35:27.083Z,1.10
2023-01-17T23:38:13.502Z,1.10
2023-01-17T23:40:42.112Z,1.10
2023-01-17T23:43:23.168Z,1.10
2023-01-17T23:45:52.321Z,1.10
2023-01-17T23:48:20.655Z,1.10
2023-01-17T23:50:48.987Z,1.10
2023-01-17T23:53:26.260Z,1.10
2023-01-17T23:55:59.878Z,1.10
2023-01-17T23:58:28.120Z,1.10
